Aviation Digital Data Service (ADDS)

Output produced by METARs form (1132 UTC 21 February 2018)
found at http://aviationweather.gov/adds/metars/
 
KPOU 201253Z 2013/2112 17008KT 3SM BR VCSH BKN003 OVC015 WS020/22040KT 
     TEMPO 2013/2016 SCT003 BKN015 
     FM201700 18009G19KT 6SM BR VCSH SCT010 BKN035 OVC050 
     FM202000 18010KT P6SM BKN010 BKN025 BKN035 
     FM210000 18008KT 3SM BR BKN010 
     FM210300 21007KT 1SM BR BKN010